createdAt,value
2018-07-20T00:01:22.335Z,183.78
2018-07-20T00:03:53.424Z,184.03
2018-07-20T00:06:24.454Z,185.22
2018-07-20T00:08:55.626Z,182.05
2018-07-20T00:11:26.796Z,185.63
2018-07-20T00:13:57.939Z,184.22
2018-07-20T00:16:28.888Z,183.78
2018-07-20T00:18:59.915Z,186.67
2018-07-20T00:21:31.061Z,182.40
2018-07-20T00:24:02.189Z,180.93
2018-07-20T00:26:33.526Z,182.07
2018-07-20T00:29:04.571Z,179.47
2018-07-20T00:31:35.469Z,181.57
2018-07-20T00:34:06.662Z,179.95
2018-07-20T00:36:37.615Z,181.40
2018-07-20T00:39:10.817Z,183.00
2018-07-20T00:41:42.004Z,179.40
2018-07-20T00:44:13.060Z,183.75
2018-07-20T00:46:44.021Z,179.87
2018-07-20T00:49:15.167Z,183.22
2018-07-20T00:51:46.573Z,183.45
2018-07-20T00:54:17.643Z,188.18
2018-07-20T00:56:48.732Z,176.80
2018-07-20T00:59:19.978Z,178.75
2018-07-20T01:01:51.155Z,177.35
2018-07-20T01:04:22.195Z,185.85
2018-07-20T01:06:53.353Z,180.78
2018-07-20T01:09:24.430Z,180.57
2018-07-20T01:11:55.588Z,181.78
2018-07-20T01:14:26.943Z,182.37
2018-07-20T01:16:57.948Z,181.70
2018-07-20T01:19:28.916Z,182.05
2018-07-20T01:22:00.115Z,177.68
2018-07-20T01:24:32.103Z,177.12
2018-07-20T01:27:03.504Z,180.27
2018-07-20T01:29:34.556Z,180.72
2018-07-20T01:32:06.094Z,177.00
2018-07-20T01:34:37.237Z,176.97
2018-07-20T01:37:08.457Z,176.12
2018-07-20T01:39:39.761Z,176.15
2018-07-20T01:42:10.784Z,178.80
2018-07-20T01:44:42.613Z,174.60
2018-07-20T01:47:13.763Z,173.97
2018-07-20T01:49:44.748Z,174.02
2018-07-20T01:52:16.583Z,174.85
2018-07-20T01:54:47.700Z,178.00
2018-07-20T01:57:18.879Z,175.25
2018-07-20T01:59:49.955Z,177.25
2018-07-20T02:02:21.052Z,177.97
2018-07-20T02:04:52.179Z,174.77
2018-07-20T02:07:23.242Z,178.50
2018-07-20T02:09:54.656Z,174.00
2018-07-20T02:12:25.792Z,175.12
2018-07-20T02:14:58.574Z,172.68
2018-07-20T02:17:30.051Z,177.72
2018-07-20T02:20:01.157Z,175.80
2018-07-20T02:22:32.267Z,174.93
2018-07-20T02:25:03.666Z,175.85
2018-07-20T02:27:34.703Z,173.87
2018-07-20T02:30:06.650Z,176.07
2018-07-20T02:32:37.804Z,173.97
2018-07-20T02:35:08.873Z,175.55
2018-07-20T02:37:39.882Z,176.82
2018-07-20T02:40:13.028Z,177.00
2018-07-20T02:42:44.690Z,174.47
2018-07-20T02:45:16.240Z,177.50
2018-07-20T02:47:47.295Z,175.53
2018-07-20T02:50:18.668Z,175.15
2018-07-20T02:52:49.831Z,172.37
2018-07-20T02:55:25.038Z,175.12
2018-07-20T02:57:56.316Z,171.68
2018-07-20T03:00:27.447Z,172.82
2018-07-20T03:02:58.608Z,174.95
2018-07-20T03:05:31.768Z,186.57
2018-07-20T03:08:04.463Z,197.00
2018-07-20T03:10:35.820Z,178.10
2018-07-20T03:13:08.641Z,172.15
2018-07-20T03:15:39.666Z,172.35
2018-07-20T03:18:12.336Z,171.68
2018-07-20T03:20:43.437Z,170.00
2018-07-20T03:23:23.380Z,169.55
2018-07-20T03:25:54.615Z,174.10
2018-07-20T03:28:25.882Z,170.72
2018-07-20T03:30:56.911Z,170.95
2018-07-20T03:33:28.080Z,170.92
2018-07-20T03:35:59.699Z,176.12
2018-07-20T03:38:31.119Z,174.15
2018-07-20T03:41:03.432Z,169.32
2018-07-20T03:43:34.868Z,171.53
2018-07-20T03:46:05.766Z,171.22
2018-07-20T03:48:37.081Z,170.22
2018-07-20T03:51:08.330Z,170.62
2018-07-20T03:53:39.278Z,169.77
2018-07-20T03:56:10.218Z,172.93
2018-07-20T03:58:41.366Z,174.77
2018-07-20T04:01:13.184Z,169.57
2018-07-20T04:03:44.549Z,169.60
2018-07-20T04:06:15.632Z,170.60
2018-07-20T04:08:46.714Z,168.55
2018-07-20T04:11:17.936Z,172.82
2018-07-20T04:13:49.015Z,170.10
2018-07-20T04:16:20.067Z,174.20
2018-07-20T04:18:51.443Z,170.80
2018-07-20T04:21:22.445Z,170.57
2018-07-20T04:23:53.552Z,176.97
2018-07-20T04:26:24.591Z,171.40
2018-07-20T04:28:55.664Z,172.68
2018-07-20T04:31:26.713Z,174.18
2018-07-20T04:33:57.779Z,175.15
2018-07-20T04:36:29.040Z,169.93
2018-07-20T04:39:00.135Z,173.93
2018-07-20T04:41:33.594Z,175.50
2018-07-20T04:44:04.736Z,174.10
2018-07-20T04:46:36.378Z,173.85
2018-07-20T04:49:07.854Z,177.25
2018-07-20T04:51:38.938Z,174.80
2018-07-20T04:54:11.098Z,170.53
2018-07-20T04:56:42.328Z,173.93
2018-07-20T04:59:13.343Z,172.40
2018-07-20T05:01:44.240Z,175.65
2018-07-20T05:04:15.699Z,174.30
2018-07-20T05:06:47.443Z,174.60
2018-07-20T05:09:18.589Z,177.62
2018-07-20T05:11:50.001Z,179.68
2018-07-20T05:14:20.909Z,180.20
2018-07-20T05:16:52.533Z,178.93
2018-07-20T05:19:23.671Z,180.37
2018-07-20T05:21:54.845Z,175.60
2018-07-20T05:24:25.876Z,174.18
2018-07-20T05:26:57.159Z,178.35
2018-07-20T05:29:28.281Z,181.60
2018-07-20T05:32:03.348Z,182.00
2018-07-20T05:34:34.416Z,184.45
2018-07-20T05:37:05.928Z,189.77
2018-07-20T05:39:37.730Z,176.55
2018-07-20T05:42:09.248Z,177.93
2018-07-20T05:44:40.669Z,182.20
2018-07-20T05:47:11.675Z,185.15
2018-07-20T05:49:42.579Z,178.47
2018-07-20T05:52:13.640Z,185.30
2018-07-20T05:54:46.695Z,193.40
2018-07-20T05:57:17.853Z,185.12
2018-07-20T05:59:49.245Z,181.40
2018-07-20T06:02:21.060Z,184.82
2018-07-20T06:04:52.377Z,187.50
2018-07-20T06:07:23.689Z,184.93
2018-07-20T06:09:54.723Z,182.93
2018-07-20T06:12:25.746Z,182.95
2018-07-20T06:15:00.484Z,188.40
2018-07-20T06:17:34.902Z,192.45
2018-07-20T06:20:10.097Z,184.32
2018-07-20T06:22:42.173Z,179.42
2018-07-20T06:25:13.409Z,184.90
2018-07-20T06:27:44.467Z,178.57
2018-07-20T06:30:15.641Z,183.37
2018-07-20T06:32:46.693Z,179.78
2018-07-20T06:35:17.876Z,188.80
2018-07-20T06:37:49.535Z,187.12
2018-07-20T06:40:22.867Z,184.52
2018-07-20T06:42:54.434Z,187.03
2018-07-20T06:45:25.688Z,187.90
2018-07-20T06:47:56.686Z,191.07
2018-07-20T06:50:28.373Z,190.68
2018-07-20T06:52:59.499Z,195.18
2018-07-20T06:55:31.393Z,190.60
2018-07-20T06:58:03.369Z,184.05
2018-07-20T07:00:36.166Z,187.90
2018-07-20T07:03:09.031Z,181.97
2018-07-20T07:05:39.991Z,186.47
2018-07-20T07:08:12.447Z,180.00
2018-07-20T07:10:43.550Z,185.18
2018-07-20T07:13:16.401Z,187.30
2018-07-20T07:15:48.175Z,183.97
2018-07-20T07:18:19.599Z,185.03
2018-07-20T07:20:50.678Z,185.78
2018-07-20T07:23:21.648Z,189.03
2018-07-20T07:25:52.904Z,193.22
2018-07-20T07:28:24.236Z,186.30
2018-07-20T07:30:55.253Z,184.80
2018-07-20T07:33:28.135Z,188.40
2018-07-20T07:36:02.251Z,188.00
2018-07-20T07:38:36.474Z,186.00
2018-07-20T07:41:09.128Z,185.70
2018-07-20T07:43:41.236Z,193.20
2018-07-20T07:46:12.187Z,191.30
2018-07-20T07:51:40.100Z,192.35
2018-07-20T07:54:12.112Z,188.30
2018-07-20T07:56:44.179Z,188.27
2018-07-20T07:59:15.347Z,185.95
2018-07-20T08:01:46.354Z,183.68
2018-07-20T08:04:17.631Z,190.92
2018-07-20T08:06:48.553Z,187.25
2018-07-20T08:09:19.753Z,188.52
2018-07-20T08:11:51.117Z,186.73
2018-07-20T08:14:22.419Z,190.05
2018-07-20T08:16:53.411Z,192.80
2018-07-20T08:19:24.384Z,193.45
2018-07-20T08:21:55.299Z,196.53
2018-07-20T08:24:26.351Z,196.60
2018-07-20T08:26:57.344Z,190.95
2018-07-20T08:29:28.554Z,193.40
2018-07-20T08:32:02.844Z,194.37
2018-07-20T08:34:34.078Z,202.13
2018-07-20T08:37:06.531Z,186.43
2018-07-20T08:39:37.625Z,197.07
2018-07-20T08:42:09.092Z,196.18
2018-07-20T08:44:41.465Z,198.10
2018-07-20T08:47:15.855Z,190.90
2018-07-20T08:49:47.035Z,197.02
2018-07-20T08:52:18.909Z,197.43
2018-07-20T08:54:49.887Z,196.65
2018-07-20T08:57:21.450Z,197.22
2018-07-20T18:53:18.967Z,224.30
2018-07-20T18:55:52.560Z,233.43
2018-07-20T18:58:23.562Z,221.77
2018-07-20T19:00:54.729Z,229.38
2018-07-20T19:03:25.890Z,240.82
2018-07-20T19:05:57.114Z,245.65
2018-07-20T19:08:28.131Z,228.27
2018-07-20T19:10:59.822Z,242.37
2018-07-20T19:13:31.038Z,238.12
2018-07-20T19:16:03.991Z,232.03
2018-07-20T19:18:35.250Z,227.05
2018-07-20T19:21:06.278Z,252.75
2018-07-20T19:23:37.469Z,258.63
2018-07-20T19:26:08.745Z,275.70
2018-07-20T19:28:40.653Z,268.82
2018-07-20T19:31:12.215Z,247.48
2018-07-20T19:33:43.342Z,254.03
2018-07-20T19:36:14.774Z,279.75
2018-07-20T19:38:46.871Z,257.57
2018-07-20T19:41:18.662Z,255.25
2018-07-20T19:43:50.043Z,245.20
2018-07-20T19:46:21.905Z,229.43
2018-07-20T19:48:53.163Z,255.95
2018-07-20T19:51:24.467Z,274.65
2018-07-20T19:53:56.016Z,235.38
2018-07-20T19:56:27.144Z,254.20
2018-07-20T19:58:58.576Z,278.55
2018-07-20T20:01:30.808Z,269.95
2018-07-20T20:04:03.345Z,264.23
2018-07-20T20:06:34.747Z,252.07
2018-07-20T20:09:09.700Z,246.50
2018-07-20T20:11:42.311Z,256.80
2018-07-20T20:14:13.756Z,255.50
2018-07-20T20:16:45.406Z,260.93
2018-07-20T20:19:17.344Z,268.40
2018-07-20T20:21:57.354Z,273.77
2018-07-20T20:24:29.243Z,255.25
2018-07-20T20:27:00.674Z,262.77
2018-07-20T20:29:31.953Z,264.45
2018-07-20T20:32:04.465Z,262.90
2018-07-20T20:34:35.708Z,271.45
2018-07-20T20:37:07.267Z,273.93
2018-07-20T20:39:38.989Z,271.90
2018-07-20T20:42:10.068Z,272.73
2018-07-20T20:44:42.300Z,258.77
2018-07-20T20:47:13.291Z,231.20
2018-07-20T20:49:44.721Z,254.00
2018-07-20T20:52:16.484Z,242.05
2018-07-20T20:54:47.694Z,243.50
2018-07-20T20:57:18.885Z,243.15
2018-07-20T20:59:50.271Z,246.62
2018-07-20T21:02:21.724Z,255.75
2018-07-20T21:04:54.164Z,244.93
2018-07-20T21:07:25.367Z,252.57
2018-07-20T21:09:56.771Z,256.82
2018-07-20T21:12:27.881Z,253.07
2018-07-20T21:15:00.095Z,241.50
2018-07-20T21:17:31.583Z,241.15
2018-07-20T21:20:03.034Z,245.07
2018-07-20T21:22:34.268Z,248.07
2018-07-20T21:25:06.657Z,244.53
2018-07-20T21:27:37.666Z,241.50
2018-07-20T21:30:08.861Z,235.93
2018-07-20T21:32:39.980Z,245.30
2018-07-20T21:35:10.985Z,236.52
2018-07-20T21:37:42.357Z,237.05
2018-07-20T21:40:14.567Z,234.92
2018-07-20T21:42:46.756Z,261.60
2018-07-20T21:45:18.428Z,248.65
2018-07-20T21:47:49.439Z,234.52
2018-07-20T21:50:22.714Z,228.52
2018-07-20T21:52:54.167Z,238.05
2018-07-20T21:55:26.844Z,228.62
2018-07-20T21:57:57.883Z,231.32
2018-07-20T22:00:31.723Z,236.47
2018-07-20T22:03:04.735Z,240.25
2018-07-20T22:05:38.760Z,234.75
2018-07-20T22:08:12.603Z,241.00
2018-07-20T22:10:44.391Z,238.35
2018-07-20T22:13:15.736Z,236.52
2018-07-20T22:15:47.480Z,224.18
2018-07-20T22:18:18.367Z,222.88
2018-07-20T22:20:49.487Z,232.75
2018-07-20T22:23:21.210Z,263.05
2018-07-20T22:25:52.690Z,248.75
2018-07-20T22:28:24.697Z,233.02
2018-07-20T22:30:56.082Z,236.30
2018-07-20T22:33:27.611Z,251.67
2018-07-20T22:35:59.039Z,233.40
2018-07-20T22:38:30.565Z,236.60
2018-07-20T22:41:02.185Z,254.50
2018-07-20T22:43:33.797Z,240.55
2018-07-20T22:46:04.968Z,237.10
2018-07-20T22:48:36.388Z,233.15
2018-07-20T22:51:08.099Z,238.75
2018-07-20T22:53:39.164Z,239.60
2018-07-20T22:56:10.332Z,232.43
2018-07-20T22:58:41.387Z,230.92
2018-07-20T23:01:13.183Z,228.10
2018-07-20T23:03:44.530Z,231.97
2018-07-20T23:06:16.618Z,228.73
2018-07-20T23:08:47.964Z,223.32
2018-07-20T23:11:19.114Z,227.95
2018-07-20T23:13:50.440Z,213.55
2018-07-20T23:16:21.639Z,231.70
2018-07-20T23:18:52.882Z,229.85
2018-07-20T23:21:25.178Z,227.87
2018-07-20T23:23:56.368Z,220.88
2018-07-20T23:26:28.223Z,225.78
2018-07-20T23:28:59.186Z,219.15
2018-07-20T23:31:30.278Z,218.55
2018-07-20T23:34:01.380Z,217.50
2018-07-20T23:36:32.415Z,224.27
2018-07-20T23:39:05.595Z,221.00
2018-07-20T23:41:36.801Z,231.65
2018-07-20T23:44:09.030Z,228.37
2018-07-20T23:46:39.995Z,210.85
2018-07-20T23:49:11.547Z,219.60
2018-07-20T23:51:42.657Z,225.35
2018-07-20T23:54:14.368Z,230.70
2018-07-20T23:56:45.384Z,233.10
2018-07-20T23:59:16.870Z,224.22
